createdAt,value
2022-12-22T00:01:34.018Z,39.63
2022-12-22T00:04:19.418Z,43.67
2022-12-22T00:07:06.260Z,46.00
2022-12-22T00:09:51.601Z,42.23
2022-12-22T00:12:38.342Z,40.83
2022-12-22T00:15:24.789Z,42.87
2022-12-22T00:18:10.398Z,44.20
2022-12-22T00:20:55.838Z,45.07
2022-12-22T00:23:42.939Z,42.90
2022-12-22T00:26:28.269Z,48.57
2022-12-22T00:29:13.609Z,41.47
2022-12-22T00:31:59.892Z,40.83
2022-12-22T00:34:47.785Z,38.67
2022-12-22T00:37:33.434Z,41.87
2022-12-22T00:40:20.661Z,44.23
2022-12-22T00:43:06.260Z,42.87
2022-12-22T00:45:51.884Z,40.03
2022-12-22T00:48:42.667Z,39.87
2022-12-22T00:51:28.651Z,36.87
2022-12-22T00:54:14.786Z,42.60
2022-12-22T00:57:01.552Z,38.10
2022-12-22T00:59:47.362Z,36.97
2022-12-22T01:02:33.097Z,38.00
2022-12-22T01:05:18.676Z,38.10
2022-12-22T01:08:03.716Z,35.30
2022-12-22T01:10:49.255Z,36.77
2022-12-22T01:13:35.996Z,33.10
2022-12-22T01:16:21.893Z,35.73
2022-12-22T01:19:07.438Z,33.53
2022-12-22T01:21:52.593Z,36.30
2022-12-22T01:24:38.354Z,34.60
2022-12-22T01:27:23.516Z,37.00
2022-12-22T01:30:10.515Z,44.27
2022-12-22T01:32:55.954Z,37.17
2022-12-22T01:35:43.589Z,36.77
2022-12-22T01:38:29.172Z,33.13
2022-12-22T01:41:16.714Z,34.03
2022-12-22T01:44:02.106Z,33.47
2022-12-22T01:46:52.155Z,39.17
2022-12-22T01:49:42.101Z,38.90
2022-12-22T01:52:29.791Z,43.20
2022-12-22T01:55:20.284Z,47.77
2022-12-22T01:58:06.354Z,49.93
2022-12-22T02:00:51.559Z,58.70
2022-12-22T02:03:40.256Z,55.90
2022-12-22T02:06:38.586Z,54.97
2022-12-22T02:09:41.556Z,51.83
2022-12-22T02:12:35.401Z,47.27
2022-12-22T02:15:26.348Z,53.37
2022-12-22T02:18:21.591Z,47.87
2022-12-22T02:21:13.153Z,48.67
2022-12-22T02:24:23.019Z,46.97
2022-12-22T02:27:12.655Z,40.37
2022-12-22T02:30:01.061Z,35.90
2022-12-22T02:32:46.499Z,36.87
2022-12-22T02:35:33.896Z,40.43
2022-12-22T02:38:28.447Z,41.77
2022-12-22T02:41:25.156Z,38.90
2022-12-22T02:44:26.254Z,39.70
2022-12-22T02:47:21.655Z,36.77
2022-12-22T02:50:13.175Z,39.43
2022-12-22T02:53:00.911Z,38.23
2022-12-22T02:55:46.817Z,37.03
2022-12-22T02:58:32.458Z,33.43
2022-12-22T03:01:20.340Z,32.90
2022-12-22T03:04:06.755Z,42.47
2022-12-22T03:06:52.328Z,37.43
2022-12-22T03:09:38.038Z,37.77
2022-12-22T03:12:23.574Z,37.23
2022-12-22T03:15:08.926Z,37.37
2022-12-22T03:17:55.791Z,41.53
2022-12-22T03:20:40.893Z,35.93
2022-12-22T03:23:26.370Z,38.00
2022-12-22T03:25:54.760Z,39.13
2022-12-22T03:28:23.951Z,38.57
2022-12-22T03:30:57.354Z,38.20
2022-12-22T03:33:26.964Z,38.97
2022-12-22T03:35:54.897Z,36.27
2022-12-22T03:38:22.944Z,37.57
2022-12-22T03:40:50.934Z,35.73
2022-12-22T03:43:37.290Z,35.87
2022-12-22T03:46:22.606Z,37.60
2022-12-22T03:49:06.361Z,40.03
2022-12-22T03:51:34.400Z,40.77
2022-12-22T03:54:02.501Z,41.63
2022-12-22T03:56:30.751Z,40.90
2022-12-22T03:58:59.010Z,33.73
2022-12-22T04:01:27.342Z,39.17
2022-12-22T04:03:57.023Z,40.73
2022-12-22T04:06:25.069Z,37.87
2022-12-22T04:08:53.168Z,38.30
2022-12-22T04:11:38.851Z,33.37
2022-12-22T04:14:06.839Z,44.57
2022-12-22T04:16:35.009Z,37.50
2022-12-22T04:19:04.801Z,37.43
2022-12-22T04:21:32.736Z,39.23
2022-12-22T04:24:00.734Z,41.93
2022-12-22T04:26:28.794Z,36.47
2022-12-22T04:28:57.068Z,46.83
2022-12-22T04:31:25.525Z,42.33
2022-12-22T04:33:53.564Z,43.03
2022-12-22T04:36:22.969Z,42.27
2022-12-22T04:38:50.911Z,40.60
2022-12-22T04:41:18.839Z,42.57
2022-12-22T04:43:46.984Z,40.17
2022-12-22T04:46:15.104Z,41.10
2022-12-22T04:48:43.268Z,36.73
2022-12-22T04:51:11.472Z,35.50
2022-12-22T04:53:40.786Z,39.17
2022-12-22T04:56:09.874Z,38.37
2022-12-22T04:58:38.003Z,39.07
2022-12-22T05:01:14.495Z,35.40
2022-12-22T05:03:42.660Z,37.60
2022-12-22T05:06:11.331Z,34.97
2022-12-22T05:08:40.717Z,37.80
2022-12-22T05:11:08.979Z,36.43
2022-12-22T05:13:37.036Z,32.67
2022-12-22T05:16:06.846Z,35.03
2022-12-22T05:18:35.479Z,34.40
2022-12-22T05:21:05.119Z,35.97
2022-12-22T05:23:33.080Z,34.50
2022-12-22T05:26:02.495Z,37.40
2022-12-22T05:28:32.236Z,34.80
2022-12-22T05:31:05.002Z,38.57
2022-12-22T05:33:33.203Z,36.53
2022-12-22T05:36:01.246Z,31.67
2022-12-22T05:38:29.442Z,39.67
2022-12-22T05:41:03.517Z,33.10
2022-12-22T05:43:34.054Z,36.43
2022-12-22T05:46:04.020Z,33.23
2022-12-22T05:48:37.964Z,35.23
2022-12-22T05:51:08.380Z,38.30
2022-12-22T05:53:36.659Z,39.00
2022-12-22T05:56:05.571Z,38.40
2022-12-22T05:58:35.357Z,36.73
2022-12-22T06:01:03.440Z,38.50
2022-12-22T06:03:32.647Z,43.50
2022-12-22T06:06:01.389Z,40.43
2022-12-22T06:08:30.228Z,39.03
2022-12-22T06:10:59.931Z,39.80
2022-12-22T06:13:28.243Z,36.87
2022-12-22T06:15:57.747Z,37.63
2022-12-22T06:18:25.887Z,36.60
2022-12-22T06:20:54.592Z,39.60
2022-12-22T06:23:23.182Z,37.27
2022-12-22T06:25:58.486Z,39.90
2022-12-22T06:28:27.894Z,43.17
2022-12-22T06:30:57.581Z,41.97
2022-12-22T06:33:25.730Z,42.93
2022-12-22T06:35:58.830Z,39.47
2022-12-22T06:38:28.191Z,38.00
2022-12-22T06:40:56.369Z,38.17
2022-12-22T06:43:23.394Z,40.87
2022-12-22T06:45:51.420Z,40.93
2022-12-22T06:48:21.090Z,35.27
2022-12-22T06:50:49.421Z,35.37
2022-12-22T06:53:17.668Z,32.67
2022-12-22T06:55:46.695Z,32.70
2022-12-22T06:58:14.859Z,37.67
2022-12-22T07:00:43.430Z,34.60
2022-12-22T07:03:11.616Z,31.57
2022-12-22T07:05:41.330Z,37.50
2022-12-22T07:08:09.577Z,30.83
2022-12-22T07:10:55.620Z,30.47
2022-12-22T07:13:24.422Z,30.53
2022-12-22T07:16:00.157Z,29.63
2022-12-22T07:18:30.055Z,28.77
2022-12-22T07:20:59.722Z,39.83
2022-12-22T07:23:28.445Z,30.40
2022-12-22T07:25:56.798Z,28.00
2022-12-22T07:28:25.679Z,27.93
2022-12-22T07:30:56.555Z,30.97
2022-12-22T07:33:24.757Z,32.60
2022-12-22T07:36:04.165Z,31.50
2022-12-22T07:38:34.997Z,33.33
2022-12-22T07:41:05.446Z,31.43
2022-12-22T07:43:32.816Z,29.37
2022-12-22T07:46:01.065Z,29.10
2022-12-22T07:48:47.345Z,26.67
2022-12-22T07:51:16.735Z,27.00
2022-12-22T07:53:44.936Z,27.17
2022-12-22T07:56:13.001Z,28.73
2022-12-22T07:58:41.154Z,28.57
2022-12-22T08:01:09.274Z,32.13
2022-12-22T08:03:37.686Z,29.63
2022-12-22T08:06:06.446Z,28.90
2022-12-22T08:08:36.537Z,33.10
2022-12-22T08:11:04.903Z,32.33
2022-12-22T08:13:33.447Z,29.87
2022-12-22T08:16:05.234Z,26.43
2022-12-22T08:18:34.364Z,41.47
2022-12-22T08:21:03.181Z,38.13
2022-12-22T08:23:31.710Z,33.13
2022-12-22T08:26:04.945Z,28.70
2022-12-22T08:28:35.698Z,29.20
2022-12-22T08:31:05.316Z,29.50
2022-12-22T08:33:33.783Z,25.37
2022-12-22T08:36:07.827Z,27.63
2022-12-22T08:38:36.992Z,26.47
2022-12-22T08:41:07.120Z,30.53
2022-12-22T08:43:35.146Z,25.47
2022-12-22T08:46:03.359Z,31.17
2022-12-22T08:48:31.431Z,33.57
2022-12-22T08:50:59.849Z,32.77
2022-12-22T08:54:03.455Z,39.03
2022-12-22T08:56:17.508Z,36.90
2022-12-22T08:58:45.645Z,32.43
2022-12-22T09:01:18.794Z,33.37
2022-12-22T09:03:50.741Z,31.37
2022-12-22T09:06:22.446Z,32.90
2022-12-22T09:08:55.793Z,29.77
2022-12-22T09:11:25.787Z,33.23
2022-12-22T09:13:55.400Z,30.53
2022-12-22T09:16:27.101Z,32.80
2022-12-22T09:18:57.579Z,34.30
2022-12-22T09:21:26.211Z,38.17
2022-12-22T09:23:55.211Z,32.07
2022-12-22T09:26:28.699Z,39.27
2022-12-22T09:28:57.647Z,40.43
2022-12-22T09:31:27.298Z,37.43
2022-12-22T09:33:55.509Z,37.23
2022-12-22T09:36:26.082Z,36.17
2022-12-22T09:38:54.738Z,32.77
2022-12-22T09:41:31.768Z,35.57
2022-12-22T09:44:04.370Z,34.97
2022-12-22T09:46:36.029Z,34.23
2022-12-22T09:49:06.842Z,28.33
2022-12-22T09:51:40.742Z,51.50
2022-12-22T09:54:11.955Z,31.90
2022-12-22T09:56:41.964Z,33.47
2022-12-22T09:59:12.997Z,37.57
2022-12-22T10:01:56.963Z,30.70
2022-12-22T10:04:40.862Z,32.10
2022-12-22T10:07:18.291Z,32.90
2022-12-22T10:09:50.178Z,29.80
2022-12-22T10:12:23.517Z,32.67
2022-12-22T10:14:53.830Z,32.23
2022-12-22T10:17:25.958Z,36.03
2022-12-22T10:19:56.128Z,29.20
2022-12-22T10:22:30.203Z,41.13
2022-12-22T10:24:59.018Z,27.10
2022-12-22T10:27:31.928Z,25.80
2022-12-22T10:30:22.205Z,28.13
2022-12-22T10:33:04.080Z,28.40
2022-12-22T10:35:51.343Z,29.30
2022-12-22T10:38:24.259Z,32.03
2022-12-22T10:41:01.750Z,31.67
2022-12-22T10:43:34.172Z,29.47
2022-12-22T10:46:03.548Z,32.10
2022-12-22T10:48:38.015Z,29.40
2022-12-22T10:51:09.970Z,27.85
2022-12-22T10:53:47.673Z,30.20
2022-12-22T10:56:26.291Z,31.98
2022-12-22T10:58:57.361Z,28.10
2022-12-22T11:01:29.389Z,28.42
2022-12-22T11:03:59.522Z,30.67
2022-12-22T11:06:28.467Z,28.15
2022-12-22T11:09:16.882Z,27.10
2022-12-22T11:11:51.566Z,32.47
2022-12-22T11:14:31.939Z,28.02
2022-12-22T11:17:04.826Z,25.92
2022-12-22T11:19:59.814Z,30.00
2022-12-22T11:22:39.864Z,37.47
2022-12-22T11:25:30.952Z,25.00
2022-12-22T11:28:18.081Z,25.70
2022-12-22T11:30:56.579Z,24.50
2022-12-22T11:33:41.739Z,35.92
2022-12-22T11:36:19.024Z,25.38
2022-12-22T11:38:51.490Z,25.88
2022-12-22T11:41:36.086Z,25.30
2022-12-22T11:44:19.060Z,22.67
2022-12-22T11:46:54.885Z,24.92
2022-12-22T11:49:46.737Z,24.50
2022-12-22T11:52:30.772Z,22.13
2022-12-22T11:55:15.091Z,26.00
2022-12-22T11:57:57.038Z,33.20
2022-12-22T12:00:42.706Z,24.02
2022-12-22T12:03:57.399Z,23.30
2022-12-22T12:06:46.098Z,23.60
2022-12-22T12:09:29.611Z,27.27
2022-12-22T12:12:04.917Z,22.77
2022-12-22T12:14:40.054Z,29.42
2022-12-22T12:17:19.497Z,27.13
2022-12-22T12:20:02.073Z,23.05
2022-12-22T12:22:44.224Z,22.48
2022-12-22T12:25:26.215Z,23.90
2022-12-22T12:28:09.565Z,25.42
2022-12-22T12:30:46.344Z,26.63
2022-12-22T12:33:19.243Z,24.83
2022-12-22T12:36:00.193Z,29.13
2022-12-22T12:39:06.951Z,28.80
2022-12-22T12:41:35.088Z,25.70
2022-12-22T12:44:04.394Z,26.02
2022-12-22T12:47:13.701Z,33.25
2022-12-22T12:49:58.875Z,29.90
2022-12-22T12:53:14.936Z,27.65
2022-12-22T12:55:59.035Z,31.80
2022-12-22T12:58:49.959Z,26.63
2022-12-22T13:02:03.184Z,27.52
2022-12-22T13:05:13.933Z,35.30
2022-12-22T13:08:11.664Z,27.23
2022-12-22T13:10:42.811Z,47.28
2022-12-22T13:13:47.478Z,36.63
2022-12-22T13:16:30.753Z,37.42
2022-12-22T13:19:00.268Z,28.05
2022-12-22T13:21:52.770Z,32.20
2022-12-22T13:24:28.541Z,35.78
2022-12-22T13:27:05.539Z,33.40
2022-12-22T13:29:44.751Z,39.58
2022-12-22T13:32:29.099Z,36.92
2022-12-22T13:37:57.601Z,38.17
2022-12-22T13:40:28.533Z,31.58
2022-12-22T13:42:59.052Z,32.67
2022-12-22T13:45:35.944Z,32.90
2022-12-22T13:48:10.540Z,28.83
2022-12-22T13:50:41.460Z,31.27
2022-12-22T13:53:41.489Z,31.50
2022-12-22T13:56:06.972Z,30.87
2022-12-22T13:58:40.665Z,34.57
2022-12-22T14:01:19.966Z,35.40
2022-12-22T14:04:01.421Z,33.17
2022-12-22T14:06:32.372Z,27.77
2022-12-22T14:09:16.779Z,28.33
2022-12-22T14:11:51.930Z,29.67
2022-12-22T14:14:25.059Z,28.97
2022-12-22T14:16:57.009Z,33.30
2022-12-22T14:19:26.485Z,31.50
2022-12-22T14:22:03.960Z,31.20
2022-12-22T14:24:38.684Z,38.70
2022-12-22T14:27:13.780Z,33.27
2022-12-22T14:29:42.203Z,33.70
2022-12-22T14:32:39.591Z,32.70
2022-12-22T14:35:22.741Z,28.93
2022-12-22T14:37:52.836Z,29.37
2022-12-22T14:40:32.357Z,27.87
2022-12-22T14:43:02.812Z,28.10
2022-12-22T14:45:32.440Z,31.17
2022-12-22T14:48:02.075Z,40.40
2022-12-22T14:50:30.927Z,28.87
2022-12-22T14:53:00.685Z,30.20
2022-12-22T14:55:32.482Z,29.97
2022-12-22T14:58:05.430Z,26.93
2022-12-22T15:00:39.272Z,22.37
2022-12-22T15:03:31.468Z,28.20
2022-12-22T15:06:24.214Z,26.00
2022-12-22T15:08:53.925Z,31.93
2022-12-22T15:11:25.231Z,27.77
2022-12-22T15:13:53.542Z,25.17
2022-12-22T15:16:24.268Z,33.50
2022-12-22T15:18:54.658Z,27.97
2022-12-22T15:21:23.532Z,35.17
2022-12-22T15:23:51.568Z,29.17
2022-12-22T15:26:19.801Z,27.27
2022-12-22T15:28:48.162Z,31.30
2022-12-22T15:31:18.040Z,26.80
2022-12-22T15:33:46.987Z,29.07
2022-12-22T15:36:16.731Z,28.30
2022-12-22T15:38:45.121Z,28.57
2022-12-22T15:41:13.234Z,27.40
2022-12-22T15:43:58.765Z,29.13
2022-12-22T15:46:28.569Z,28.93
2022-12-22T15:48:56.951Z,25.80
2022-12-22T15:51:30.618Z,33.50
2022-12-22T15:54:00.612Z,29.87
2022-12-22T15:56:33.551Z,29.73
2022-12-22T15:59:03.233Z,25.13
2022-12-22T16:01:31.525Z,30.27
2022-12-22T16:03:59.679Z,26.23
2022-12-22T16:06:29.943Z,28.40
2022-12-22T16:09:05.945Z,26.87
2022-12-22T16:11:37.916Z,33.70
2022-12-22T16:14:07.379Z,30.70
2022-12-22T16:16:36.180Z,30.13
2022-12-22T16:19:04.741Z,29.97
2022-12-22T16:21:34.457Z,27.53
2022-12-22T16:24:04.081Z,28.17
2022-12-22T16:26:32.531Z,42.97
2022-12-22T16:29:01.018Z,30.40
2022-12-22T16:31:29.123Z,32.43
2022-12-22T16:33:58.377Z,30.33
2022-12-22T16:36:27.103Z,36.17
2022-12-22T16:38:56.521Z,38.60
2022-12-22T16:41:27.458Z,45.83
2022-12-22T16:46:45.331Z,47.20
2022-12-22T16:49:26.141Z,43.17
2022-12-22T16:51:56.121Z,27.20
2022-12-22T16:54:28.495Z,35.17
2022-12-22T16:56:56.702Z,30.93
2022-12-22T16:59:26.506Z,30.77
2022-12-22T17:01:57.212Z,30.77
2022-12-22T17:04:29.906Z,32.43
2022-12-22T17:07:00.803Z,30.33
2022-12-22T17:09:40.683Z,34.60
2022-12-22T17:12:12.144Z,30.63
2022-12-22T17:14:41.268Z,44.13
2022-12-22T17:17:16.230Z,35.73
2022-12-22T17:19:44.634Z,36.03
2022-12-22T17:22:24.451Z,32.37
2022-12-22T17:24:57.006Z,33.77
2022-12-22T17:27:28.819Z,34.47
2022-12-22T17:29:58.313Z,35.27
2022-12-22T17:32:33.055Z,37.33
2022-12-22T17:35:01.156Z,37.27
2022-12-22T17:37:30.927Z,36.57
2022-12-22T17:40:07.405Z,35.90
2022-12-22T17:42:36.459Z,35.17
2022-12-22T17:45:04.869Z,31.70
2022-12-22T17:47:38.853Z,35.90
2022-12-22T17:50:15.331Z,30.70
2022-12-22T17:52:44.089Z,33.33
2022-12-22T17:56:01.324Z,31.17
2022-12-22T17:58:19.801Z,37.37
2022-12-22T18:00:48.384Z,43.00
2022-12-22T18:03:18.069Z,41.50
2022-12-22T18:05:48.808Z,36.67
2022-12-22T18:08:22.650Z,41.90
2022-12-22T18:10:52.318Z,42.20
2022-12-22T18:13:22.634Z,40.70
2022-12-22T18:15:50.957Z,71.27
2022-12-22T18:18:21.718Z,43.77
2022-12-22T18:21:06.977Z,51.13
2022-12-22T18:23:41.083Z,45.27
2022-12-22T18:26:35.508Z,39.40
2022-12-22T18:29:04.401Z,40.77
2022-12-22T18:31:33.793Z,42.13
2022-12-22T18:34:02.480Z,39.37
2022-12-22T18:36:34.037Z,37.80
2022-12-22T18:39:03.533Z,57.27
2022-12-22T18:41:35.787Z,37.67
2022-12-22T18:44:04.172Z,37.27
2022-12-22T18:46:32.514Z,37.40
2022-12-22T18:49:05.618Z,36.47
2022-12-22T18:51:38.041Z,41.03
2022-12-22T18:54:22.954Z,42.40
2022-12-22T18:57:01.325Z,39.60
2022-12-22T18:59:33.091Z,38.40
2022-12-22T19:02:05.332Z,38.93
2022-12-22T19:04:33.555Z,44.43
2022-12-22T19:07:02.037Z,49.33
2022-12-22T19:09:30.072Z,41.80
2022-12-22T19:12:00.974Z,45.00
2022-12-22T19:14:30.039Z,45.43
2022-12-22T19:17:00.455Z,48.43
2022-12-22T19:19:31.852Z,46.80
2022-12-22T19:21:59.978Z,53.63
2022-12-22T19:24:29.718Z,52.57
2022-12-22T19:27:01.946Z,43.10
2022-12-22T19:29:38.187Z,43.77
2022-12-22T19:32:09.213Z,40.80
2022-12-22T19:34:38.929Z,38.90
2022-12-22T19:37:07.407Z,46.17
2022-12-22T19:39:36.281Z,47.90
2022-12-22T19:42:06.605Z,46.57
2022-12-22T19:44:36.295Z,52.17
2022-12-22T19:47:12.160Z,56.83
2022-12-22T19:52:23.641Z,45.37
2022-12-22T19:54:51.991Z,44.57
2022-12-22T19:57:24.279Z,52.63
2022-12-22T19:59:54.375Z,47.67
2022-12-22T20:02:28.598Z,48.90
2022-12-22T20:04:58.554Z,49.17
2022-12-22T20:07:31.833Z,45.70
2022-12-22T20:10:01.085Z,45.03
2022-12-22T20:12:35.610Z,46.87
2022-12-22T20:15:15.142Z,49.97
2022-12-22T20:17:44.531Z,55.20
2022-12-22T20:20:15.461Z,48.37
2022-12-22T20:22:47.919Z,46.40
2022-12-22T20:25:21.415Z,49.80
2022-12-22T20:27:57.284Z,51.10
2022-12-22T20:30:28.268Z,52.23
2022-12-22T20:32:56.787Z,46.93
2022-12-22T20:35:26.960Z,40.10
2022-12-22T20:37:55.099Z,44.20
2022-12-22T20:40:25.840Z,46.47
2022-12-22T20:42:55.546Z,48.30
2022-12-22T20:45:24.136Z,43.50
2022-12-22T20:47:53.556Z,46.47
2022-12-22T20:50:23.118Z,48.07
2022-12-22T20:52:52.199Z,50.77
2022-12-22T20:55:22.078Z,45.43
2022-12-22T20:57:51.756Z,53.07
2022-12-22T21:00:24.615Z,44.40
2022-12-22T21:02:55.049Z,43.87
2022-12-22T21:05:25.084Z,44.87
2022-12-22T21:07:53.765Z,48.43
2022-12-22T21:10:27.291Z,51.87
2022-12-22T21:13:16.113Z,43.47
2022-12-22T21:15:54.503Z,47.10
2022-12-22T21:18:25.136Z,44.70
2022-12-22T21:20:54.335Z,53.67
2022-12-22T21:23:22.481Z,53.73
2022-12-22T21:25:54.064Z,55.50
2022-12-22T21:28:27.743Z,49.20
2022-12-22T21:30:58.209Z,48.17
2022-12-22T21:33:26.800Z,48.67
2022-12-22T21:35:57.109Z,45.00
2022-12-22T21:38:29.129Z,52.47
2022-12-22T21:40:58.934Z,43.90
2022-12-22T21:43:27.254Z,49.60
2022-12-22T21:45:57.113Z,44.73
2022-12-22T21:48:25.344Z,47.20
2022-12-22T21:50:53.720Z,49.00
2022-12-22T21:53:23.013Z,48.40
2022-12-22T21:55:51.606Z,51.30
2022-12-22T21:58:19.744Z,49.43
2022-12-22T22:00:50.398Z,50.70
2022-12-22T22:03:21.065Z,54.83
2022-12-22T22:05:51.998Z,44.63
2022-12-22T22:08:21.361Z,45.30
2022-12-22T22:10:50.464Z,41.07
2022-12-22T22:13:18.519Z,46.90
2022-12-22T22:15:46.831Z,42.10
2022-12-22T22:18:17.455Z,42.93
2022-12-22T22:20:48.080Z,41.83
2022-12-22T22:23:17.189Z,47.27
2022-12-22T22:25:47.613Z,42.57
2022-12-22T22:28:15.728Z,47.57
2022-12-22T22:30:43.858Z,44.93
2022-12-22T22:33:12.876Z,44.03
2022-12-22T22:35:41.954Z,41.27
2022-12-22T22:38:14.125Z,43.90
2022-12-22T22:40:44.075Z,41.03
2022-12-22T22:43:12.688Z,44.33
2022-12-22T22:45:41.821Z,42.23
2022-12-22T22:48:18.499Z,46.67
2022-12-22T22:50:47.122Z,42.93
2022-12-22T22:53:17.011Z,41.03
2022-12-22T22:55:45.231Z,38.77
2022-12-22T22:58:13.551Z,41.57
2022-12-22T23:00:41.750Z,38.23
2022-12-22T23:03:10.663Z,38.77
2022-12-22T23:05:38.990Z,46.20
2022-12-22T23:08:07.216Z,44.17
2022-12-22T23:10:41.620Z,43.33
2022-12-22T23:13:10.651Z,43.73
2022-12-22T23:15:38.846Z,39.33
2022-12-22T23:18:07.087Z,44.63
2022-12-22T23:20:35.317Z,44.20
2022-12-22T23:23:03.407Z,39.30
2022-12-22T23:25:31.824Z,45.23
2022-12-22T23:28:01.749Z,45.13
2022-12-22T23:30:29.799Z,42.63
2022-12-22T23:32:58.138Z,38.30
2022-12-22T23:35:26.696Z,39.83
2022-12-22T23:37:55.026Z,42.73
2022-12-22T23:40:50.953Z,51.10
2022-12-22T23:43:14.117Z,41.23
2022-12-22T23:45:42.151Z,42.03
2022-12-22T23:48:11.107Z,41.50
2022-12-22T23:50:39.327Z,56.83
2022-12-22T23:53:07.537Z,54.30
2022-12-22T23:55:35.687Z,49.60
2022-12-22T23:58:04.118Z,48.30
